Map

Track Data

SID SEASON NUMBER BASIN SUBBASIN NAME ISO_TIME NATURE LAT LON WMO_WIND WMO_PRES WMO_AGENCY TRACK_TYPE DIST2LAND LANDFALL IFLAG USA_AGENCY USA_ATCF_ID USA_LAT USA_LON USA_RECORD USA_STATUS USA_WIND USA_PRES USA_SSHS USA_R34_NE USA_R34_SE USA_R34_SW USA_R34_NW USA_R50_NE USA_R50_SE USA_R50_SW USA_R50_NW USA_R64_NE USA_R64_SE USA_R64_SW USA_R64_NW USA_POCI USA_ROCI USA_RMW USA_EYE TOKYO_LAT TOKYO_LON TOKYO_GRADE TOKYO_WIND TOKYO_PRES TOKYO_R50_DIR TOKYO_R50_LONG TOKYO_R50_SHORT TOKYO_R30_DIR TOKYO_R30_LONG TOKYO_R30_SHORT TOKYO_LAND CMA_LAT CMA_LON CMA_CAT CMA_WIND CMA_PRES HKO_LAT HKO_LON HKO_CAT HKO_WIND HKO_PRES NEWDELHI_LAT NEWDELHI_LON NEWDELHI_GRADE NEWDELHI_WIND NEWDELHI_PRES NEWDELHI_CI NEWDELHI_DP NEWDELHI_POCI REUNION_LAT REUNION_LON REUNION_TYPE REUNION_WIND REUNION_PRES REUNION_TNUM REUNION_CI REUNION_RMW REUNION_R34_NE REUNION_R34_SE REUNION_R34_SW REUNION_R34_NW REUNION_R50_NE REUNION_R50_SE REUNION_R50_SW REUNION_R50_NW REUNION_R64_NE REUNION_R64_SE REUNION_R64_SW REUNION_R64_NW BOM_LAT BOM_LON BOM_TYPE BOM_WIND BOM_PRES BOM_TNUM BOM_CI BOM_RMW BOM_R34_NE BOM_R34_SE BOM_R34_SW BOM_R34_NW BOM_R50_NE BOM_R50_SE BOM_R50_SW BOM_R50_NW BOM_R64_NE BOM_R64_SE BOM_R64_SW BOM_R64_NW BOM_ROCI BOM_POCI BOM_EYE BOM_POS_METHOD BOM_PRES_METHOD NADI_LAT NADI_LON NADI_CAT NADI_WIND NADI_PRES WELLINGTON_LAT WELLINGTON_LON WELLINGTON_WIND WELLINGTON_PRES DS824_LAT DS824_LON DS824_STAGE DS824_WIND DS824_PRES TD9636_LAT TD9636_LON TD9636_STAGE TD9636_WIND TD9636_PRES TD9635_LAT TD9635_LON TD9635_WIND TD9635_PRES TD9635_ROCI NEUMANN_LAT NEUMANN_LON NEUMANN_CLASS NEUMANN_WIND NEUMANN_PRES MLC_LAT MLC_LON MLC_CLASS MLC_WIND MLC_PRES USA_GUST BOM_GUST BOM_GUST_PER REUNION_GUST REUNION_GUST_PER USA_SEAHGT USA_SEARAD_NE USA_SEARAD_SE USA_SEARAD_SW USA_SEARAD_NW STORM_SPEED STORM_DIR
1918165N21088 1918 36 NI BB NOT_NAMED 1918-06-14 00:00:00 TS 21.4000 87.5000 main 24 24 _________O____ -1 21.4000 87.5000 TC 30 0 0
1918165N21088 1918 36 NI BB NOT_NAMED 1918-06-14 03:00:00 TS 21.4000 87.5000 main 24 24 _________PO___ -1 21.4000 87.5000 TC 30 21.4000 87.5000 1 0 0
1918165N21088 1918 36 NI BB NOT_NAMED 1918-06-14 06:00:00 TS 21.4032 87.4875 main 24 24 _________OP___ -1 21.4000 87.5000 TC 30 21.4080 87.4689 1 0 0
1918165N21088 1918 36 NI BB NOT_NAMED 1918-06-14 09:00:00 TS 21.4055 87.4786 main 24 24 _________PP___ -1 21.4000 87.5000 TC 30 21.4128 87.4502 1 0 0
1918165N21088 1918 36 NI BB NOT_NAMED 1918-06-14 12:00:00 TS 21.4056 87.4782 main 24 24 _________OP___ -1 21.4000 87.5000 TC 30 21.4112 87.4564 1 0 0
1918165N21088 1918 36 NI BB NOT_NAMED 1918-06-14 15:00:00 TS 21.4000 87.5000 main 24 24 _________PO___ -1 21.4000 87.5000 TC 30 21.4000 87.5000 1 1 107
1918165N21088 1918 36 NI BB NOT_NAMED 1918-06-14 18:00:00 TS 21.3896 87.5405 main 24 24 _________OP___ -1 21.4000 87.5000 TC 30 21.3792 87.5809 1 1 105
1918165N21088 1918 36 NI BB NOT_NAMED 1918-06-14 21:00:00 TS 21.3732 87.6121 main 30 30 _________PP___ -1 21.3848 87.5749 TC 30 21.3615 87.6494 1 0 102
1918165N21088 1918 36 NI BB NOT_NAMED 1918-06-15 00:00:00 TS 21.3816 87.5716 main 30 22 _________OP___ -1 21.4000 87.5000 TC 30 21.3632 87.6432 1 3 282
1918165N21088 1918 36 NI BB NOT_NAMED 1918-06-15 03:00:00 TS 21.4389 87.2875 main 22 0 _________PO___ -1 21.4778 87.0750 TC 30 21.4000 87.5000 1 7 284
1918165N21088 1918 36 NI BB NOT_NAMED 1918-06-15 06:00:00 TS 21.5532 86.8122 main 0 0 _________OP___ -1 21.6000 86.5000 TC 30 21.5065 87.1244 1 10 286
1918165N21088 1918 36 NI BB NOT_NAMED 1918-06-15 09:00:00 TS 21.7047 86.2958 main 0 0 _________PP___ -1 21.7650 85.9777 TC 30 21.6443 86.6138 1 10 287
1918165N21088 1918 36 NI BB NOT_NAMED 1918-06-15 12:00:00 TS 21.8423 85.7731 main 0 0 _________OP___ -1 21.9000 85.5000 TC 30 21.7847 86.0462 1 9 283
1918165N21088 1918 36 NI BB NOT_NAMED 1918-06-15 15:00:00 TS 21.9074 85.3174 main 0 0 _________PO___ -1 21.9147 85.1347 TC 30 21.9000 85.5000 1 8 276
1918165N21088 1918 36 NI BB NOT_NAMED 1918-06-15 18:00:00 TS 21.9289 84.9139 main 0 0 _________OP___ -1 21.9000 84.8000 TC 30 21.9578 85.0277 1 8 274
1918165N21088 1918 36 NI BB NOT_NAMED 1918-06-15 21:00:00 TS 21.9689 84.4736 main 0 0 _________PP___ -1 21.9502 84.3476 TC 30 21.9875 84.5995 1 7 275
1918165N21088 1918 36 NI BB NOT_NAMED 1918-06-16 00:00:00 TS 21.9993 84.1233 main 0 0 _________OP___ -1 22.0000 84.0000 TC 30 21.9985 84.2466 1 5 274
1918165N21088 1918 36 NI BB NOT_NAMED 1918-06-16 03:00:00 TS 22.0037 83.9700 main 0 0 _________PO___ -1 22.0073 83.9400 TC 30 22.0000 84.0000 1 2 271
1918165N21088 1918 36 NI BB NOT_NAMED 1918-06-16 06:00:00 TS 22.0033 83.9461 main 0 0 _________OP___ -1 22.0000 84.0000 TC 30 22.0067 83.8921 1 0 0
1918165N21088 1918 36 NI BB NOT_NAMED 1918-06-16 09:00:00 TS 22.0035 83.9437 main 0 0 _________PP___ -1 22.0000 84.0000 TC 30 22.0069 83.8874 1 0 0
1918165N21088 1918 36 NI BB NOT_NAMED 1918-06-16 12:00:00 TS 22.0019 83.9695 main 0 0 _________OP___ -1 22.0000 84.0000 TC 30 22.0038 83.9390 1 1 94
1918165N21088 1918 36 NI BB NOT_NAMED 1918-06-16 15:00:00 TS 22.0000 84.0000 main 0 0 _________PO___ -1 22.0000 84.0000 TC 30 22.0000 84.0000 1 1 107
1918165N21088 1918 36 NI BB NOT_NAMED 1918-06-16 18:00:00 TS 21.9856 84.0343 main 0 0 _________OP___ -1 22.0000 84.0000 TC 30 21.9712 84.0687 1 1 115
1918165N21088 1918 36 NI BB NOT_NAMED 1918-06-16 21:00:00 TS 21.9621 84.0858 main 0 0 _________PP___ -1 21.9774 84.0449 TC 30 21.9468 84.1268 1 0 0
1918165N21088 1918 36 NI BB NOT_NAMED 1918-06-17 00:00:00 TS 21.9745 84.0608 main 0 0 _________OP___ -1 22.0000 84.0000 TC 30 21.9490 84.1215 1 2 298
1918165N21088 1918 36 NI BB NOT_NAMED 1918-06-17 03:00:00 TS 22.0599 83.8912 main 0 0 _________PO___ -1 22.1198 83.7824 TC 30 22.0000 84.0000 1 5 295
1918165N21088 1918 36 NI BB NOT_NAMED 1918-06-17 06:00:00 TS 22.2029 83.5226 main 0 0 _________OP___ -1 22.3000 83.4000 TC 30 22.1057 83.6451 1 9 291
1918165N21088 1918 36 NI BB NOT_NAMED 1918-06-17 09:00:00 TS 22.3738 83.0082 main 0 0 _________PP___ -1 22.4856 82.8352 TC 30 22.2620 83.1812 1 10 292
1918165N21088 1918 36 NI BB NOT_NAMED 1918-06-17 12:00:00 TS 22.5810 82.5008 main 0 0 _________OP___ -1 22.7000 82.3000 TC 30 22.4621 82.7015 1 9 299
1918165N21088 1918 36 NI BB NOT_NAMED 1918-06-17 15:00:00 TS 22.8136 82.1587 main 0 0 _________PO___ -1 22.9272 82.0174 TC 30 22.7000 82.3000 1 7 316
1918165N21088 1918 36 NI BB NOT_NAMED 1918-06-17 18:00:00 TS 23.0688 81.9847 main 0 0 _________OP___ -1 23.2000 81.9000 TC 30 22.9704 82.0483 1 6 337
1918165N21088 1918 36 NI BB NOT_NAMED 1918-06-17 21:00:00 TS 23.3727 81.9068 main 0 0 _________PP___ -1 23.5326 81.8775 TC 30 23.2661 81.9264 1 6 353
1918165N21088 1918 36 NI BB NOT_NAMED 1918-06-18 00:00:00 TS 23.6859 81.8942 main 0 0 _________OP___ -1 23.9000 81.9000 TC 30 23.5788 81.8913 1 5 357
1918165N21088 1918 36 NI BB NOT_NAMED 1918-06-18 03:00:00 NR 23.9000 81.9000 main 0 __________O___ -1 TC 23.9000 81.9000 1 4 0

About IBTrACS Database

This database is a web-friendly format of International Best Track Archive for Climate Stewardship (IBTrACS), a global best track data archive curated by NOAA dating back to 1842.

Updated: 2021-10-25